WZZ6306 LHBP-LIMJ
Flight info
| Callsign | WZZ6306 |
|---|---|
| Flight time | 1h 20m |
| Altitude | 36000 |
| Route | GILEP DCT ZOLKU DCT SUBES DCT SUNIS DCT RADLY DCT RIFEN/N0449F370 DCT AKADO DCT NISIL DCT BEROK DCT MIVKI M730 KALMO |
| Aircraft | A21N/M-SDE2E3FGHIRWXY/LB1 |
Departure
| Time | 2026-05-05 10:13 |
|---|---|
| Airport | Budapest Liszt Ferenc International Airport (LHBP) |
Arrival
| Time | 2026-05-05 11:33 |
|---|---|
| Airport | Genoa Cristoforo Colombo Airport (LIMJ) |
| Time | Latitude | Longitude | Altitude | Speed | Heading |
|---|---|---|---|---|---|
| 2026-05-05 09:47 | 47.43391 | 19.25799 | 461 ft | 0 kts | 222° |
| 2026-05-05 10:02 | 47.43393 | 19.25801 | 461 ft | 2 kts | 222° |
| 2026-05-05 10:02 | 47.43412 | 19.25826 | 463 ft | 4 kts | 222° |
| 2026-05-05 10:02 | 47.43430 | 19.25851 | 459 ft | 2 kts | 222° |
| 2026-05-05 10:03 | 47.43444 | 19.25878 | 458 ft | 4 kts | 266° |
| 2026-05-05 10:03 | 47.43436 | 19.25910 | 460 ft | 4 kts | 310° |
| 2026-05-05 10:03 | 47.43428 | 19.25924 | 457 ft | 1 kts | 312° |
| 2026-05-05 10:03 | 47.43427 | 19.25925 | 457 ft | 0 kts | 312° |
| 2026-05-05 10:06 | 47.43430 | 19.25920 | 459 ft | 2 kts | 312° |
| 2026-05-05 10:07 | 47.43447 | 19.25893 | 459 ft | 1 kts | 311° |
| 2026-05-05 10:07 | 47.43452 | 19.25887 | 460 ft | 2 kts | 316° |
| 2026-05-05 10:07 | 47.43471 | 19.25854 | 461 ft | 6 kts | 302° |
| 2026-05-05 10:07 | 47.43501 | 19.25784 | 463 ft | 11 kts | 303° |
| 2026-05-05 10:08 | 47.43562 | 19.25713 | 463 ft | 13 kts | 5° |
| 2026-05-05 10:08 | 47.43646 | 19.25795 | 463 ft | 17 kts | 41° |
| 2026-05-05 10:08 | 47.43743 | 19.25925 | 463 ft | 21 kts | 42° |
| 2026-05-05 10:08 | 47.43859 | 19.26077 | 463 ft | 23 kts | 42° |
| 2026-05-05 10:09 | 47.43946 | 19.26150 | 463 ft | 14 kts | 340° |
| 2026-05-05 10:09 | 47.44019 | 19.26046 | 463 ft | 16 kts | 311° |
| 2026-05-05 10:09 | 47.44105 | 19.25910 | 463 ft | 19 kts | 315° |
| 2026-05-05 10:09 | 47.44201 | 19.25753 | 463 ft | 22 kts | 309° |
| 2026-05-05 10:10 | 47.44278 | 19.25632 | 464 ft | 8 kts | 316° |
| 2026-05-05 10:10 | 47.44324 | 19.25573 | 464 ft | 6 kts | 323° |
| 2026-05-05 10:10 | 47.44367 | 19.25556 | 464 ft | 9 kts | 353° |
| 2026-05-05 10:10 | 47.44437 | 19.25572 | 466 ft | 13 kts | 24° |
| 2026-05-05 10:11 | 47.44506 | 19.25691 | 476 ft | 17 kts | 58° |
| 2026-05-05 10:11 | 47.44510 | 19.25819 | 480 ft | 12 kts | 135° |
| 2026-05-05 10:11 | 47.44490 | 19.25846 | 478 ft | 0 kts | 136° |
| 2026-05-05 10:12 | 47.44408 | 19.25976 | 477 ft | 49 kts | 133° |
| 2026-05-05 10:12 | 47.44021 | 19.26589 | 475 ft | 112 kts | 131° |
| 2026-05-05 10:12 | 47.43381 | 19.27637 | 472 ft | 162 kts | 132° |
| 2026-05-05 10:13 | 47.42584 | 19.28951 | 765 ft | 177 kts | 130° |
| 2026-05-05 10:13 | 47.41798 | 19.30367 | 1314 ft | 182 kts | 128° |
| 2026-05-05 10:13 | 47.41103 | 19.31939 | 1823 ft | 191 kts | 112° |
| 2026-05-05 10:13 | 47.40550 | 19.33815 | 2218 ft | 207 kts | 117° |
| 2026-05-05 10:14 | 47.39828 | 19.35742 | 2741 ft | 222 kts | 119° |
| 2026-05-05 10:14 | 47.39068 | 19.37764 | 3264 ft | 234 kts | 119° |
| 2026-05-05 10:14 | 47.38212 | 19.39884 | 3864 ft | 248 kts | 129° |
| 2026-05-05 10:14 | 47.36834 | 19.41507 | 4425 ft | 262 kts | 157° |
| 2026-05-05 10:15 | 47.35038 | 19.41968 | 5186 ft | 266 kts | 186° |
| 2026-05-05 10:15 | 47.33314 | 19.41135 | 5965 ft | 269 kts | 213° |
| 2026-05-05 10:15 | 47.31997 | 19.39134 | 6754 ft | 272 kts | 239° |
| 2026-05-05 10:15 | 47.31167 | 19.36749 | 7512 ft | 275 kts | 245° |
| 2026-05-05 10:16 | 47.30373 | 19.34274 | 8298 ft | 277 kts | 244° |
| 2026-05-05 10:16 | 47.29512 | 19.31654 | 9085 ft | 281 kts | 244° |
| 2026-05-05 10:16 | 47.28638 | 19.29058 | 9834 ft | 285 kts | 243° |
| 2026-05-05 10:16 | 47.27729 | 19.26408 | 10366 ft | 298 kts | 243° |
| 2026-05-05 10:17 | 47.26756 | 19.23598 | 10667 ft | 317 kts | 243° |
| 2026-05-05 10:17 | 47.25718 | 19.20621 | 10948 ft | 337 kts | 243° |
| 2026-05-05 10:17 | 47.24612 | 19.17464 | 11199 ft | 356 kts | 243° |
| 2026-05-05 10:17 | 47.23444 | 19.14143 | 11466 ft | 373 kts | 243° |
| 2026-05-05 10:18 | 47.22236 | 19.10710 | 12000 ft | 381 kts | 243° |
| 2026-05-05 10:18 | 47.21167 | 19.07134 | 12631 ft | 384 kts | 252° |
| 2026-05-05 10:18 | 47.20719 | 19.03255 | 13233 ft | 388 kts | 269° |
| 2026-05-05 10:18 | 47.21043 | 18.99321 | 13819 ft | 391 kts | 285° |
| 2026-05-05 10:19 | 47.22142 | 18.95662 | 14396 ft | 394 kts | 302° |
| 2026-05-05 10:19 | 47.23785 | 18.92415 | 14954 ft | 398 kts | 308° |
| 2026-05-05 10:19 | 47.25530 | 18.89234 | 15517 ft | 401 kts | 309° |
| 2026-05-05 10:19 | 47.27287 | 18.86024 | 16102 ft | 404 kts | 308° |
| 2026-05-05 10:20 | 47.29044 | 18.82762 | 16679 ft | 408 kts | 308° |
| 2026-05-05 10:20 | 47.30808 | 18.79466 | 17232 ft | 411 kts | 308° |
| 2026-05-05 10:20 | 47.32574 | 18.76134 | 17793 ft | 415 kts | 308° |
| 2026-05-05 10:20 | 47.34351 | 18.72763 | 18319 ft | 418 kts | 308° |
| 2026-05-05 10:21 | 47.36147 | 18.69370 | 18844 ft | 422 kts | 308° |
| 2026-05-05 10:21 | 47.37958 | 18.65942 | 19365 ft | 425 kts | 308° |
| 2026-05-05 10:21 | 47.39784 | 18.62500 | 19867 ft | 428 kts | 307° |
| 2026-05-05 10:21 | 47.41408 | 18.58806 | 20343 ft | 431 kts | 297° |
| 2026-05-05 10:22 | 47.42518 | 18.54689 | 20806 ft | 434 kts | 288° |
| 2026-05-05 10:22 | 47.43396 | 18.50416 | 21262 ft | 436 kts | 286° |
| 2026-05-05 10:22 | 47.44249 | 18.46103 | 21701 ft | 440 kts | 286° |
| 2026-05-05 10:22 | 47.45112 | 18.41749 | 22123 ft | 443 kts | 286° |
| 2026-05-05 10:23 | 47.45989 | 18.37374 | 22539 ft | 446 kts | 286° |
| 2026-05-05 10:23 | 47.46870 | 18.33024 | 22979 ft | 448 kts | 287° |
| 2026-05-05 10:23 | 47.47768 | 18.28600 | 23406 ft | 451 kts | 287° |
| 2026-05-05 10:23 | 47.48614 | 18.24117 | 23818 ft | 453 kts | 284° |
| 2026-05-05 10:24 | 47.49372 | 18.19583 | 24205 ft | 456 kts | 283° |
| 2026-05-05 10:24 | 47.50126 | 18.15010 | 24599 ft | 459 kts | 283° |
| 2026-05-05 10:24 | 47.50881 | 18.10408 | 24987 ft | 462 kts | 283° |
| 2026-05-05 10:24 | 47.51638 | 18.05788 | 25340 ft | 464 kts | 283° |
| 2026-05-05 10:25 | 47.52400 | 18.01133 | 25701 ft | 466 kts | 283° |
| 2026-05-05 10:25 | 47.53168 | 17.96468 | 26130 ft | 466 kts | 283° |
| 2026-05-05 10:25 | 47.53931 | 17.91814 | 26608 ft | 465 kts | 283° |
| 2026-05-05 10:25 | 47.54612 | 17.87138 | 27043 ft | 464 kts | 278° |
| 2026-05-05 10:26 | 47.54766 | 17.82375 | 27475 ft | 464 kts | 266° |
| 2026-05-05 10:26 | 47.54255 | 17.77675 | 27892 ft | 463 kts | 255° |
| 2026-05-05 10:26 | 47.53093 | 17.73250 | 28308 ft | 462 kts | 244° |
| 2026-05-05 10:26 | 47.51598 | 17.69043 | 28701 ft | 462 kts | 242° |
| 2026-05-05 10:27 | 47.50071 | 17.64869 | 29111 ft | 461 kts | 242° |
| 2026-05-05 10:27 | 47.48556 | 17.60698 | 29519 ft | 460 kts | 242° |
| 2026-05-05 10:27 | 47.47054 | 17.56531 | 29891 ft | 459 kts | 242° |
| 2026-05-05 10:27 | 47.45562 | 17.52364 | 30251 ft | 458 kts | 242° |
| 2026-05-05 10:28 | 47.44076 | 17.48214 | 30600 ft | 458 kts | 242° |
| 2026-05-05 10:28 | 47.42596 | 17.44063 | 30947 ft | 457 kts | 243° |
| 2026-05-05 10:28 | 47.41336 | 17.39751 | 31266 ft | 456 kts | 249° |
| 2026-05-05 10:28 | 47.40225 | 17.35368 | 31582 ft | 456 kts | 250° |
| 2026-05-05 10:29 | 47.39126 | 17.30988 | 31885 ft | 455 kts | 250° |
| 2026-05-05 10:29 | 47.38019 | 17.26622 | 32175 ft | 454 kts | 249° |
| 2026-05-05 10:29 | 47.36904 | 17.22263 | 32449 ft | 454 kts | 249° |
| 2026-05-05 10:29 | 47.35788 | 17.17913 | 32714 ft | 453 kts | 249° |
| 2026-05-05 10:30 | 47.34671 | 17.13566 | 32980 ft | 453 kts | 249° |
| 2026-05-05 10:30 | 47.33557 | 17.09226 | 33238 ft | 452 kts | 249° |
| 2026-05-05 10:30 | 47.32444 | 17.04892 | 33468 ft | 452 kts | 249° |
| 2026-05-05 10:30 | 47.31330 | 17.00569 | 33706 ft | 451 kts | 249° |
| 2026-05-05 10:31 | 47.30213 | 16.96244 | 33933 ft | 451 kts | 249° |
| 2026-05-05 10:31 | 47.29099 | 16.91934 | 34148 ft | 451 kts | 249° |
| 2026-05-05 10:31 | 47.27983 | 16.87622 | 34371 ft | 450 kts | 249° |
| 2026-05-05 10:31 | 47.26865 | 16.83318 | 34583 ft | 450 kts | 249° |
| 2026-05-05 10:32 | 47.25747 | 16.79020 | 34768 ft | 450 kts | 249° |
| 2026-05-05 10:32 | 47.24625 | 16.74724 | 34956 ft | 449 kts | 249° |
| 2026-05-05 10:32 | 47.23504 | 16.70436 | 35133 ft | 449 kts | 249° |
| 2026-05-05 10:32 | 47.22386 | 16.66154 | 35311 ft | 449 kts | 249° |
| 2026-05-05 10:33 | 47.21280 | 16.61926 | 35477 ft | 448 kts | 249° |
| 2026-05-05 10:33 | 47.20156 | 16.57655 | 35646 ft | 448 kts | 249° |
| 2026-05-05 10:33 | 47.19032 | 16.53384 | 35797 ft | 448 kts | 249° |
| 2026-05-05 10:33 | 47.17906 | 16.49115 | 35939 ft | 448 kts | 249° |
| 2026-05-05 10:34 | 47.15660 | 16.40581 | 36033 ft | 447 kts | 249° |
| 2026-05-05 10:34 | 47.13068 | 16.32290 | 36011 ft | 448 kts | 239° |
| 2026-05-05 10:35 | 47.09766 | 16.24550 | 36005 ft | 447 kts | 238° |
| 2026-05-05 10:35 | 47.06445 | 16.16829 | 36004 ft | 448 kts | 238° |
| 2026-05-05 10:36 | 47.03131 | 16.09106 | 36003 ft | 447 kts | 238° |
| 2026-05-05 10:36 | 46.99817 | 16.01390 | 36001 ft | 447 kts | 238° |
| 2026-05-05 10:37 | 46.96499 | 15.93681 | 36004 ft | 448 kts | 238° |
| 2026-05-05 10:37 | 46.93729 | 15.87279 | 36005 ft | 447 kts | 238° |
| 2026-05-05 10:38 | 46.90393 | 15.79581 | 36008 ft | 448 kts | 238° |
| 2026-05-05 10:38 | 46.87054 | 15.71898 | 36004 ft | 448 kts | 237° |
| 2026-05-05 10:39 | 46.83160 | 15.62971 | 36002 ft | 448 kts | 237° |
| 2026-05-05 10:39 | 46.80354 | 15.56552 | 36002 ft | 447 kts | 237° |
| 2026-05-05 10:40 | 46.77007 | 15.48903 | 35999 ft | 447 kts | 237° |
| 2026-05-05 10:40 | 46.73654 | 15.41253 | 36005 ft | 448 kts | 237° |
| 2026-05-05 10:41 | 46.70288 | 15.33614 | 35999 ft | 448 kts | 237° |
| 2026-05-05 10:41 | 46.66915 | 15.25985 | 35999 ft | 448 kts | 237° |
| 2026-05-05 10:42 | 46.61716 | 15.14716 | 36000 ft | 450 kts | 235° |
| 2026-05-05 10:43 | 46.58148 | 15.07270 | 36001 ft | 449 kts | 235° |
| 2026-05-05 10:43 | 46.54570 | 14.99828 | 36007 ft | 450 kts | 235° |
| 2026-05-05 10:44 | 46.50992 | 14.92391 | 36004 ft | 450 kts | 235° |
| 2026-05-05 10:44 | 46.47394 | 14.84941 | 36003 ft | 450 kts | 235° |
| 2026-05-05 10:45 | 46.43786 | 14.77490 | 36000 ft | 452 kts | 235° |
| 2026-05-05 10:45 | 46.40156 | 14.70012 | 36008 ft | 453 kts | 235° |
| 2026-05-05 10:46 | 46.36527 | 14.62558 | 35999 ft | 455 kts | 235° |
| 2026-05-05 10:46 | 46.32866 | 14.55060 | 36001 ft | 455 kts | 234° |
| 2026-05-05 10:47 | 46.29217 | 14.47601 | 36002 ft | 451 kts | 235° |
| 2026-05-05 10:47 | 46.25599 | 14.40219 | 36003 ft | 449 kts | 234° |
| 2026-05-05 10:48 | 46.21987 | 14.32878 | 36006 ft | 448 kts | 234° |
| 2026-05-05 10:48 | 46.18372 | 14.25550 | 36005 ft | 449 kts | 234° |
| 2026-05-05 10:49 | 46.14739 | 14.18205 | 36003 ft | 450 kts | 234° |
| 2026-05-05 10:49 | 46.11125 | 14.10920 | 36001 ft | 449 kts | 234° |
| 2026-05-05 10:50 | 46.07455 | 14.03544 | 35999 ft | 450 kts | 234° |
| 2026-05-05 10:50 | 46.03827 | 13.96266 | 36000 ft | 451 kts | 234° |
| 2026-05-05 10:51 | 46.00164 | 13.88946 | 35999 ft | 451 kts | 234° |
| 2026-05-05 10:51 | 45.96486 | 13.81610 | 35998 ft | 453 kts | 234° |
| 2026-05-05 10:52 | 45.92807 | 13.74267 | 36004 ft | 450 kts | 234° |
| 2026-05-05 10:52 | 45.89156 | 13.67006 | 36173 ft | 448 kts | 234° |
| 2026-05-05 10:52 | 45.87331 | 13.63389 | 36329 ft | 447 kts | 234° |
| 2026-05-05 10:53 | 45.85508 | 13.59775 | 36438 ft | 447 kts | 234° |
| 2026-05-05 10:53 | 45.83751 | 13.56093 | 36581 ft | 447 kts | 236° |
| 2026-05-05 10:53 | 45.82023 | 13.52394 | 36727 ft | 446 kts | 236° |
| 2026-05-05 10:53 | 45.80297 | 13.48692 | 36875 ft | 446 kts | 236° |
| 2026-05-05 10:54 | 45.78572 | 13.45000 | 36997 ft | 446 kts | 236° |
| 2026-05-05 10:54 | 45.75111 | 13.37620 | 37021 ft | 446 kts | 236° |
| 2026-05-05 10:55 | 45.71650 | 13.30255 | 37004 ft | 446 kts | 236° |
| 2026-05-05 10:55 | 45.68180 | 13.22898 | 37002 ft | 446 kts | 236° |
| 2026-05-05 10:56 | 45.64706 | 13.15551 | 37002 ft | 445 kts | 236° |
| 2026-05-05 10:56 | 45.61227 | 13.08211 | 37001 ft | 446 kts | 236° |
| 2026-05-05 10:57 | 45.57742 | 13.00872 | 37001 ft | 446 kts | 236° |
| 2026-05-05 10:57 | 45.54279 | 12.93592 | 37001 ft | 446 kts | 236° |
| 2026-05-05 10:58 | 45.50785 | 12.86280 | 37001 ft | 447 kts | 236° |
| 2026-05-05 10:58 | 45.47282 | 12.78973 | 37002 ft | 447 kts | 236° |
| 2026-05-05 10:59 | 45.43776 | 12.71683 | 37002 ft | 446 kts | 236° |
| 2026-05-05 10:59 | 45.40269 | 12.64394 | 37001 ft | 446 kts | 236° |
| 2026-05-05 11:00 | 45.36755 | 12.57109 | 37001 ft | 446 kts | 236° |
| 2026-05-05 11:00 | 45.33358 | 12.49730 | 36998 ft | 446 kts | 243° |
| 2026-05-05 11:01 | 45.31053 | 12.41541 | 37002 ft | 445 kts | 250° |
| 2026-05-05 11:01 | 45.28923 | 12.33262 | 37001 ft | 446 kts | 250° |
| 2026-05-05 11:02 | 45.26764 | 12.25011 | 37001 ft | 447 kts | 249° |
| 2026-05-05 11:02 | 45.24586 | 12.16769 | 37002 ft | 446 kts | 249° |
| 2026-05-05 11:03 | 45.22414 | 12.08587 | 37002 ft | 446 kts | 249° |
| 2026-05-05 11:03 | 45.20224 | 12.00362 | 37002 ft | 446 kts | 249° |
| 2026-05-05 11:04 | 45.18025 | 11.92139 | 37002 ft | 446 kts | 249° |
| 2026-05-05 11:04 | 45.15822 | 11.83912 | 37002 ft | 446 kts | 249° |
| 2026-05-05 11:05 | 45.13612 | 11.75703 | 37002 ft | 446 kts | 249° |
| 2026-05-05 11:05 | 45.11400 | 11.67499 | 37002 ft | 446 kts | 249° |
| 2026-05-05 11:06 | 45.09181 | 11.59303 | 37002 ft | 446 kts | 249° |
| 2026-05-05 11:06 | 45.06953 | 11.51111 | 37001 ft | 446 kts | 249° |
| 2026-05-05 11:07 | 45.04721 | 11.42927 | 37003 ft | 446 kts | 249° |
| 2026-05-05 11:07 | 45.02477 | 11.34756 | 37002 ft | 446 kts | 249° |
| 2026-05-05 11:08 | 45.00233 | 11.26578 | 37001 ft | 445 kts | 249° |
| 2026-05-05 11:08 | 44.97151 | 11.19029 | 36999 ft | 447 kts | 228° |
| 2026-05-05 11:09 | 44.92362 | 11.13472 | 37005 ft | 446 kts | 216° |
| 2026-05-05 11:09 | 44.87327 | 11.08322 | 37002 ft | 446 kts | 216° |
| 2026-05-05 11:10 | 44.82332 | 11.03112 | 37002 ft | 446 kts | 217° |
| 2026-05-05 11:10 | 44.77346 | 10.97892 | 37002 ft | 447 kts | 217° |
| 2026-05-05 11:11 | 44.72351 | 10.92680 | 37001 ft | 447 kts | 217° |
| 2026-05-05 11:11 | 44.67392 | 10.87506 | 36999 ft | 447 kts | 217° |
| 2026-05-05 11:11 | 44.64906 | 10.84917 | 36664 ft | 443 kts | 217° |
| 2026-05-05 11:12 | 44.62424 | 10.82338 | 36364 ft | 444 kts | 217° |
| 2026-05-05 11:12 | 44.59941 | 10.79762 | 36097 ft | 445 kts | 217° |
| 2026-05-05 11:12 | 44.57455 | 10.77184 | 35728 ft | 444 kts | 217° |
| 2026-05-05 11:12 | 44.54970 | 10.74611 | 35128 ft | 442 kts | 217° |
| 2026-05-05 11:13 | 44.52492 | 10.72049 | 34344 ft | 443 kts | 217° |
| 2026-05-05 11:13 | 44.50007 | 10.69483 | 33539 ft | 445 kts | 217° |
| 2026-05-05 11:13 | 44.47509 | 10.66906 | 32709 ft | 447 kts | 217° |
| 2026-05-05 11:13 | 44.44998 | 10.64317 | 31892 ft | 450 kts | 217° |
| 2026-05-05 11:14 | 44.42462 | 10.61705 | 30603 ft | 458 kts | 217° |
| 2026-05-05 11:14 | 44.39852 | 10.59020 | 29272 ft | 469 kts | 216° |
| 2026-05-05 11:14 | 44.37203 | 10.56297 | 27873 ft | 477 kts | 216° |
| 2026-05-05 11:14 | 44.34518 | 10.53540 | 26767 ft | 478 kts | 216° |
| 2026-05-05 11:15 | 44.31838 | 10.50792 | 25669 ft | 478 kts | 216° |
| 2026-05-05 11:15 | 44.29167 | 10.48059 | 24706 ft | 474 kts | 216° |
| 2026-05-05 11:15 | 44.26520 | 10.45353 | 23797 ft | 469 kts | 216° |
| 2026-05-05 11:15 | 44.23925 | 10.42638 | 22887 ft | 465 kts | 219° |
| 2026-05-05 11:16 | 44.21661 | 10.39456 | 21982 ft | 461 kts | 232° |
| 2026-05-05 11:16 | 44.20078 | 10.35946 | 21122 ft | 456 kts | 244° |
| 2026-05-05 11:16 | 44.19016 | 10.31707 | 20244 ft | 450 kts | 257° |
| 2026-05-05 11:16 | 44.18683 | 10.27474 | 19427 ft | 444 kts | 270° |
| 2026-05-05 11:17 | 44.19008 | 10.23261 | 18642 ft | 433 kts | 282° |
| 2026-05-05 11:17 | 44.19788 | 10.19245 | 17913 ft | 426 kts | 286° |
| 2026-05-05 11:17 | 44.20631 | 10.15329 | 17185 ft | 419 kts | 287° |
| 2026-05-05 11:17 | 44.21456 | 10.11465 | 16449 ft | 413 kts | 286° |
| 2026-05-05 11:18 | 44.22261 | 10.07646 | 15735 ft | 407 kts | 286° |
| 2026-05-05 11:18 | 44.23043 | 10.03885 | 15066 ft | 401 kts | 286° |
| 2026-05-05 11:18 | 44.23807 | 10.00229 | 14373 ft | 395 kts | 286° |
| 2026-05-05 11:18 | 44.24569 | 9.96575 | 13693 ft | 390 kts | 286° |
| 2026-05-05 11:19 | 44.25316 | 9.92967 | 13048 ft | 384 kts | 286° |
| 2026-05-05 11:19 | 44.26049 | 9.89408 | 12396 ft | 380 kts | 286° |
| 2026-05-05 11:19 | 44.26772 | 9.85884 | 11772 ft | 375 kts | 286° |
| 2026-05-05 11:19 | 44.27478 | 9.82442 | 11424 ft | 362 kts | 286° |
| 2026-05-05 11:20 | 44.28155 | 9.79137 | 11198 ft | 347 kts | 285° |
| 2026-05-05 11:20 | 44.28803 | 9.75967 | 10998 ft | 332 kts | 285° |
| 2026-05-05 11:20 | 44.29423 | 9.72929 | 10813 ft | 318 kts | 285° |
| 2026-05-05 11:20 | 44.30016 | 9.70019 | 10626 ft | 305 kts | 285° |
| 2026-05-05 11:21 | 44.30582 | 9.67227 | 10437 ft | 294 kts | 285° |
| 2026-05-05 11:21 | 44.31134 | 9.64503 | 10093 ft | 289 kts | 286° |
| 2026-05-05 11:21 | 44.31681 | 9.61808 | 9953 ft | 286 kts | 285° |
| 2026-05-05 11:21 | 44.32220 | 9.59132 | 9484 ft | 288 kts | 285° |
| 2026-05-05 11:22 | 44.32795 | 9.56454 | 8981 ft | 288 kts | 287° |
| 2026-05-05 11:22 | 44.33390 | 9.53807 | 8685 ft | 281 kts | 287° |
| 2026-05-05 11:22 | 44.33717 | 9.51173 | 8480 ft | 271 kts | 266° |
| 2026-05-05 11:22 | 44.33188 | 9.48721 | 8236 ft | 263 kts | 238° |
| 2026-05-05 11:23 | 44.31935 | 9.46899 | 7819 ft | 261 kts | 218° |
| 2026-05-05 11:23 | 44.30464 | 9.45364 | 7341 ft | 272 kts | 221° |
| 2026-05-05 11:23 | 44.29131 | 9.43448 | 7094 ft | 276 kts | 229° |
| 2026-05-05 11:23 | 44.27889 | 9.41472 | 6982 ft | 263 kts | 229° |
| 2026-05-05 11:24 | 44.26720 | 9.39623 | 7033 ft | 245 kts | 229° |
| 2026-05-05 11:24 | 44.25597 | 9.37860 | 7055 ft | 243 kts | 229° |
| 2026-05-05 11:24 | 44.24469 | 9.36104 | 7042 ft | 243 kts | 228° |
| 2026-05-05 11:24 | 44.23363 | 9.34322 | 7041 ft | 243 kts | 234° |
| 2026-05-05 11:25 | 44.22773 | 9.32156 | 7050 ft | 242 kts | 268° |
| 2026-05-05 11:25 | 44.23165 | 9.29910 | 7035 ft | 243 kts | 303° |
| 2026-05-05 11:25 | 44.24362 | 9.28267 | 7064 ft | 244 kts | 323° |
| 2026-05-05 11:25 | 44.25747 | 9.26915 | 6833 ft | 242 kts | 325° |
| 2026-05-05 11:26 | 44.27124 | 9.25565 | 6458 ft | 242 kts | 324° |
| 2026-05-05 11:26 | 44.28485 | 9.24193 | 6087 ft | 241 kts | 323° |
| 2026-05-05 11:26 | 44.29828 | 9.22811 | 5735 ft | 239 kts | 323° |
| 2026-05-05 11:26 | 44.31153 | 9.21430 | 5386 ft | 237 kts | 323° |
| 2026-05-05 11:27 | 44.32025 | 9.20520 | 5150 ft | 236 kts | 323° |
| 2026-05-05 11:27 | 44.33286 | 9.19075 | 4849 ft | 231 kts | 312° |
| 2026-05-05 11:27 | 44.34232 | 9.16542 | 4580 ft | 217 kts | 287° |
| 2026-05-05 11:27 | 44.34625 | 9.14615 | 4357 ft | 211 kts | 284° |
| 2026-05-05 11:28 | 44.35003 | 9.12640 | 4114 ft | 210 kts | 287° |
| 2026-05-05 11:28 | 44.35285 | 9.11325 | 3929 ft | 209 kts | 286° |
| 2026-05-05 11:28 | 44.35709 | 9.09383 | 3640 ft | 208 kts | 287° |
| 2026-05-05 11:28 | 44.36259 | 9.06876 | 3305 ft | 196 kts | 287° |
| 2026-05-05 11:29 | 44.36528 | 9.05657 | 3143 ft | 192 kts | 287° |
| 2026-05-05 11:29 | 44.36916 | 9.03918 | 2908 ft | 183 kts | 289° |
| 2026-05-05 11:29 | 44.37428 | 9.02397 | 2720 ft | 171 kts | 295° |
| 2026-05-05 11:29 | 44.37860 | 9.00881 | 2512 ft | 156 kts | 289° |
| 2026-05-05 11:30 | 44.38176 | 8.99541 | 2365 ft | 141 kts | 286° |
| 2026-05-05 11:30 | 44.38435 | 8.98230 | 2098 ft | 140 kts | 285° |
| 2026-05-05 11:30 | 44.38690 | 8.96930 | 1834 ft | 139 kts | 285° |
| 2026-05-05 11:30 | 44.38962 | 8.95643 | 1560 ft | 138 kts | 286° |
| 2026-05-05 11:31 | 44.39208 | 8.94405 | 1318 ft | 138 kts | 284° |
| 2026-05-05 11:31 | 44.39446 | 8.93097 | 1053 ft | 137 kts | 285° |
| 2026-05-05 11:31 | 44.39717 | 8.91841 | 809 ft | 136 kts | 285° |
| 2026-05-05 11:31 | 44.39954 | 8.90553 | 662 ft | 137 kts | 284° |
| 2026-05-05 11:32 | 44.40200 | 8.89271 | 520 ft | 137 kts | 285° |
| 2026-05-05 11:32 | 44.40451 | 8.87987 | 386 ft | 136 kts | 284° |
| 2026-05-05 11:32 | 44.40698 | 8.86708 | 197 ft | 136 kts | 285° |
| 2026-05-05 11:32 | 44.40952 | 8.85433 | 38 ft | 134 kts | 285° |
| 2026-05-05 11:33 | 44.41183 | 8.84259 | 27 ft | 106 kts | 285° |
| 2026-05-05 11:33 | 44.41322 | 8.83542 | 26 ft | 46 kts | 284° |
| 2026-05-05 11:33 | 44.41389 | 8.83203 | 28 ft | 21 kts | 286° |
| 2026-05-05 11:33 | 44.41472 | 8.83098 | 27 ft | 16 kts | 337° |
| 2026-05-05 11:34 | 44.41546 | 8.83149 | 26 ft | 12 kts | 79° |
| 2026-05-05 11:34 | 44.41528 | 8.83269 | 27 ft | 14 kts | 108° |
| 2026-05-05 11:34 | 44.41499 | 8.83404 | 27 ft | 16 kts | 103° |
| 2026-05-05 11:34 | 44.41470 | 8.83557 | 28 ft | 17 kts | 105° |
| 2026-05-05 11:35 | 44.41439 | 8.83725 | 26 ft | 19 kts | 104° |
| 2026-05-05 11:35 | 44.41423 | 8.83808 | 25 ft | 0 kts | 105° |
| 2026-05-05 11:37 | 44.41416 | 8.83836 | 25 ft | 6 kts | 108° |
| 2026-05-05 11:38 | 44.41397 | 8.83918 | 27 ft | 12 kts | 96° |
| 2026-05-05 11:38 | 44.41373 | 8.84053 | 25 ft | 17 kts | 107° |
| 2026-05-05 11:38 | 44.41341 | 8.84230 | 26 ft | 21 kts | 103° |
| 2026-05-05 11:38 | 44.41314 | 8.84406 | 25 ft | 14 kts | 72° |
| 2026-05-05 11:39 | 44.41377 | 8.84532 | 25 ft | 18 kts | 55° |
| 2026-05-05 11:39 | 44.41458 | 8.84671 | 25 ft | 19 kts | 51° |
| 2026-05-05 11:39 | 44.41500 | 8.84743 | 26 ft | 0 kts | 50° |
| 2026-05-05 11:40 | 44.41503 | 8.84748 | 25 ft | 3 kts | 51° |
| 2026-05-05 11:40 | 44.41515 | 8.84798 | 25 ft | 8 kts | 95° |
| 2026-05-05 11:40 | 44.41499 | 8.84883 | 28 ft | 5 kts | 104° |
| 2026-05-05 11:40 | 44.41493 | 8.84911 | 25 ft | 1 kts | 105° |
| 2026-05-05 11:41 | 44.41491 | 8.84926 | 25 ft | 0 kts | 105° |